createdAt,value
2023-06-21T00:01:38.768Z,20.54
2023-06-21T00:04:23.728Z,20.64
2023-06-21T00:07:21.767Z,20.57
2023-06-21T00:10:15.764Z,20.54
2023-06-21T00:13:07.745Z,20.51
2023-06-21T00:15:55.244Z,20.44
2023-06-21T00:18:46.762Z,20.28
2023-06-21T00:21:31.733Z,20.14
2023-06-21T00:24:22.847Z,20.29
2023-06-21T00:27:07.741Z,20.27
2023-06-21T00:29:58.767Z,20.26
2023-06-21T00:32:43.923Z,20.29
2023-06-21T00:35:35.777Z,20.32
2023-06-21T00:38:21.128Z,20.31
2023-06-21T00:41:12.768Z,20.20
2023-06-21T00:43:57.828Z,20.20
2023-06-21T00:46:49.824Z,20.16
2023-06-21T00:49:34.724Z,20.18
2023-06-21T00:52:26.746Z,20.11
2023-06-21T00:55:14.093Z,20.18
2023-06-21T00:58:05.763Z,20.20
2023-06-21T01:00:51.904Z,20.20
2023-06-21T01:03:44.765Z,20.16
2023-06-21T01:06:55.795Z,20.09
2023-06-21T01:09:50.481Z,20.10
2023-06-21T01:13:02.794Z,19.99
2023-06-21T01:15:55.378Z,19.96
2023-06-21T01:18:48.826Z,19.92
2023-06-21T01:21:40.778Z,19.80
2023-06-21T01:24:44.172Z,19.81
2023-06-21T01:27:55.773Z,19.76
2023-06-21T01:30:42.296Z,19.58
2023-06-21T01:33:35.780Z,19.62
2023-06-21T01:36:27.768Z,19.64
2023-06-21T01:39:18.796Z,19.54
2023-06-21T01:42:05.860Z,19.50
2023-06-21T01:44:57.789Z,19.51
2023-06-21T01:47:45.121Z,19.55
2023-06-21T01:50:38.785Z,19.62
2023-06-21T01:53:31.802Z,19.53
2023-06-21T01:56:25.804Z,19.58
2023-06-21T01:59:17.802Z,19.56
2023-06-21T02:02:04.724Z,19.48
2023-06-21T02:04:57.850Z,19.31
2023-06-21T02:07:56.818Z,19.34
2023-06-21T02:10:48.834Z,19.44
2023-06-21T02:13:33.709Z,19.41
2023-06-21T02:16:26.823Z,19.49
2023-06-21T02:19:17.798Z,19.41
2023-06-21T02:22:09.803Z,19.34
2023-06-21T02:24:54.570Z,19.41
2023-06-21T02:27:46.810Z,19.43
2023-06-21T02:30:31.454Z,19.45
2023-06-21T02:33:22.867Z,19.39
2023-06-21T02:36:14.794Z,19.51
2023-06-21T02:39:06.847Z,19.44
2023-06-21T02:41:52.718Z,19.27
2023-06-21T02:44:44.834Z,19.23
2023-06-21T02:47:36.834Z,19.28
2023-06-21T02:50:22.085Z,19.38
2023-06-21T02:53:13.817Z,19.30
2023-06-21T02:55:58.939Z,19.24
2023-06-21T02:58:49.814Z,19.30
2023-06-21T03:01:34.651Z,19.31
2023-06-21T03:04:25.828Z,19.27
2023-06-21T03:07:18.403Z,19.23
2023-06-21T03:10:10.830Z,19.16
2023-06-21T03:12:56.016Z,19.17
2023-06-21T03:15:47.835Z,19.13
2023-06-21T03:18:32.720Z,19.03
2023-06-21T03:21:23.871Z,18.94
2023-06-21T03:24:08.981Z,18.96
2023-06-21T03:27:00.824Z,18.96
2023-06-21T03:29:45.990Z,18.95
2023-06-21T03:32:37.901Z,19.00
2023-06-21T03:35:23.552Z,18.99
2023-06-21T03:38:14.841Z,18.97
2023-06-21T03:41:00.146Z,19.10
2023-06-21T03:43:51.843Z,19.16
2023-06-21T03:46:42.978Z,19.12
2023-06-21T03:49:34.840Z,19.20
2023-06-21T03:52:19.768Z,19.27
2023-06-21T03:55:12.846Z,19.33
2023-06-21T03:57:57.893Z,19.33
2023-06-21T04:00:49.866Z,19.34
2023-06-21T04:03:34.827Z,19.46
2023-06-21T04:06:33.831Z,19.51
2023-06-21T04:09:19.107Z,19.49
2023-06-21T04:12:10.841Z,19.54
2023-06-21T04:15:02.891Z,19.48
2023-06-21T04:17:50.358Z,19.53
2023-06-21T04:20:41.836Z,19.61
2023-06-21T04:23:29.745Z,19.58
2023-06-21T04:26:22.032Z,19.67
2023-06-21T04:29:07.711Z,19.71
2023-06-21T04:31:59.869Z,19.76
2023-06-21T04:34:44.617Z,19.79
2023-06-21T04:37:36.848Z,19.78
2023-06-21T04:40:29.878Z,19.80
2023-06-21T04:43:20.857Z,19.79
2023-06-21T04:46:11.870Z,19.78
2023-06-21T04:48:56.733Z,19.81
2023-06-21T04:51:50.854Z,19.96
2023-06-21T04:54:42.947Z,19.93
2023-06-21T04:57:28.125Z,20.05
2023-06-21T05:00:20.872Z,20.15
2023-06-21T05:03:12.907Z,20.18
2023-06-21T05:06:11.873Z,20.16
2023-06-21T05:09:11.874Z,20.20
2023-06-21T05:12:03.849Z,20.36
2023-06-21T05:14:48.700Z,20.40
2023-06-21T05:17:41.875Z,20.51
2023-06-21T05:20:27.385Z,20.60
2023-06-21T05:23:18.880Z,20.66
2023-06-21T05:26:05.320Z,20.81
2023-06-21T05:28:57.869Z,21.08
2023-06-21T05:31:50.867Z,21.33
2023-06-21T05:34:35.844Z,21.60
2023-06-21T05:37:26.871Z,21.90
2023-06-21T05:40:12.720Z,22.06
2023-06-21T05:43:08.862Z,22.02
2023-06-21T05:45:54.275Z,21.88
2023-06-21T05:48:45.880Z,21.90
2023-06-21T05:51:30.657Z,21.93
2023-06-21T05:54:21.896Z,21.96
2023-06-21T05:57:07.860Z,22.12
2023-06-21T05:59:58.901Z,21.85
2023-06-21T06:02:44.477Z,21.78
2023-06-21T06:05:35.924Z,21.88
2023-06-21T06:08:27.962Z,22.17
2023-06-21T06:11:19.889Z,22.20
2023-06-21T06:14:05.444Z,22.13
2023-06-21T06:16:56.884Z,22.02
2023-06-21T06:19:41.935Z,22.13
2023-06-21T06:22:32.899Z,22.32
2023-06-21T06:25:18.044Z,22.50
2023-06-21T06:28:09.893Z,22.63
2023-06-21T06:30:54.874Z,22.39
2023-06-21T06:33:46.900Z,22.59
2023-06-21T06:36:31.660Z,22.87
2023-06-21T06:39:22.915Z,23.17
2023-06-21T06:42:09.438Z,22.81
2023-06-21T06:45:00.909Z,22.91
2023-06-21T06:47:45.939Z,22.90
2023-06-21T06:50:36.927Z,23.02
2023-06-21T06:53:21.816Z,22.92
2023-06-21T06:56:12.921Z,23.15
2023-06-21T06:59:03.968Z,23.40
2023-06-21T07:01:49.253Z,23.35
2023-06-21T07:04:42.048Z,23.50
2023-06-21T07:07:33.934Z,23.83
2023-06-21T07:10:20.558Z,23.84
2023-06-21T07:13:12.928Z,23.86
2023-06-21T07:16:00.703Z,24.03
2023-06-21T07:18:51.921Z,24.19
2023-06-21T07:21:36.662Z,24.66
2023-06-21T07:24:27.938Z,24.54
2023-06-21T07:27:13.038Z,24.24
2023-06-21T07:30:03.937Z,25.39
2023-06-21T07:32:49.984Z,24.48
2023-06-21T07:35:41.919Z,25.47
2023-06-21T07:38:33.931Z,25.22
2023-06-21T07:41:24.925Z,24.96
2023-06-21T07:44:10.852Z,24.85
2023-06-21T07:47:02.004Z,25.28
2023-06-21T07:49:53.953Z,24.83
2023-06-21T07:52:38.726Z,28.85
2023-06-21T07:55:30.144Z,30.93
2023-06-21T07:58:15.603Z,30.56
2023-06-21T08:01:06.934Z,31.17
2023-06-21T08:03:58.981Z,31.11
2023-06-21T08:07:03.930Z,33.21
2023-06-21T08:09:54.957Z,31.95
2023-06-21T08:12:39.936Z,29.86
2023-06-21T08:15:31.967Z,32.57
2023-06-21T08:18:16.903Z,29.14
2023-06-21T08:21:07.942Z,27.44
2023-06-21T08:23:53.006Z,26.35
2023-06-21T08:26:45.008Z,26.43
2023-06-21T08:29:36.982Z,27.41
2023-06-21T08:32:21.953Z,26.92
2023-06-21T08:35:13.963Z,26.42
2023-06-21T08:38:22.578Z,26.11
2023-06-21T08:41:18.967Z,25.77
2023-06-21T08:44:10.962Z,25.48
2023-06-21T08:46:57.056Z,25.35
2023-06-21T08:49:48.962Z,25.21
2023-06-21T08:52:35.581Z,25.38
2023-06-21T08:55:30.125Z,28.39
2023-06-21T08:58:21.375Z,32.12
2023-06-21T09:01:17.073Z,30.45
2023-06-21T09:04:11.166Z,30.18
2023-06-21T09:07:16.036Z,29.37
2023-06-21T09:10:10.972Z,26.72
2023-06-21T09:12:58.232Z,26.73
2023-06-21T09:15:51.996Z,27.90
2023-06-21T09:18:44.987Z,27.10
2023-06-21T09:21:30.527Z,26.96
2023-06-21T09:24:22.051Z,29.03
2023-06-21T09:27:12.999Z,33.03
2023-06-21T09:30:17.509Z,33.68
2023-06-21T09:33:09.400Z,35.62
2023-06-21T09:36:01.057Z,30.12
2023-06-21T09:38:51.983Z,29.47
2023-06-21T09:41:44.005Z,30.60
2023-06-21T09:44:34.862Z,31.61
2023-06-21T09:47:26.069Z,31.39
2023-06-21T09:50:12.565Z,31.43
2023-06-21T09:53:04.007Z,29.86
2023-06-21T09:55:48.738Z,28.21
2023-06-21T09:58:43.986Z,27.68
2023-06-21T10:01:43.645Z,30.11
2023-06-21T10:04:35.996Z,30.83
2023-06-21T10:07:27.560Z,32.82
2023-06-21T10:10:20.021Z,30.38
2023-06-21T10:13:05.115Z,31.37
2023-06-21T10:15:56.008Z,31.96
2023-06-21T10:18:40.958Z,32.42
2023-06-21T10:21:33.012Z,31.23
2023-06-21T10:24:21.253Z,32.98
2023-06-21T10:27:14.039Z,32.86
2023-06-21T10:30:01.177Z,31.26
2023-06-21T10:32:55.047Z,30.40
2023-06-21T10:35:46.070Z,28.21
2023-06-21T10:38:45.035Z,27.53
2023-06-21T10:41:31.369Z,27.34
2023-06-21T10:44:24.976Z,26.93
2023-06-21T10:47:11.058Z,26.86
2023-06-21T10:50:08.015Z,25.89
2023-06-21T10:52:58.411Z,25.74
2023-06-21T10:55:50.043Z,25.01
2023-06-21T10:58:43.334Z,24.41
2023-06-21T11:01:37.081Z,23.99
2023-06-21T11:04:22.093Z,24.17
2023-06-21T11:07:20.027Z,24.65
2023-06-21T11:10:19.026Z,24.93
2023-06-21T11:13:10.038Z,25.39
2023-06-21T11:15:55.112Z,25.72
2023-06-21T11:18:47.049Z,27.69
2023-06-21T11:21:41.468Z,29.34
2023-06-21T11:24:34.044Z,30.44
2023-06-21T11:27:18.995Z,28.25
2023-06-21T11:30:17.027Z,28.22
2023-06-21T11:33:09.069Z,27.52
2023-06-21T11:35:53.824Z,26.63
2023-06-21T11:38:54.075Z,25.94
2023-06-21T11:41:52.045Z,25.75
2023-06-21T11:44:38.055Z,25.86
2023-06-21T11:47:29.132Z,25.45
2023-06-21T11:50:14.878Z,25.74
2023-06-21T11:53:26.067Z,26.13
2023-06-21T11:56:14.987Z,25.74
2023-06-21T11:59:07.076Z,25.87
2023-06-21T12:01:52.497Z,26.29
2023-06-21T12:04:46.312Z,25.81
2023-06-21T12:07:38.602Z,26.63
2023-06-21T12:10:31.353Z,26.84
2023-06-21T12:13:19.215Z,27.07
2023-06-21T12:16:25.080Z,26.74
2023-06-21T12:19:24.067Z,26.80
2023-06-21T12:22:08.956Z,26.35
2023-06-21T12:25:02.143Z,27.00
2023-06-21T12:27:53.960Z,27.16
2023-06-21T12:31:06.124Z,26.38
2023-06-21T12:34:01.803Z,26.87
2023-06-21T12:36:54.085Z,27.09
2023-06-21T12:39:40.536Z,26.82
2023-06-21T12:42:37.102Z,26.82
2023-06-21T12:45:22.158Z,26.73
2023-06-21T12:48:14.071Z,27.27
2023-06-21T12:50:59.031Z,28.00
2023-06-21T12:53:51.285Z,27.72
2023-06-21T12:56:40.510Z,27.36
2023-06-21T12:59:32.114Z,27.49
2023-06-21T13:02:17.433Z,27.57
2023-06-21T13:05:09.118Z,27.25
2023-06-21T13:08:15.115Z,26.86
2023-06-21T13:11:08.155Z,26.63
2023-06-21T13:14:00.085Z,26.80
2023-06-21T13:16:45.123Z,26.74
2023-06-21T13:19:36.086Z,26.83
2023-06-21T13:22:21.861Z,26.98
2023-06-21T13:25:14.209Z,27.06
2023-06-21T13:27:59.278Z,26.93
2023-06-21T13:30:51.121Z,26.50
2023-06-21T13:33:36.415Z,26.67
2023-06-21T13:36:28.109Z,26.46
2023-06-21T13:39:13.772Z,26.58
2023-06-21T13:42:05.104Z,26.78
2023-06-21T13:44:49.970Z,26.85
2023-06-21T13:47:42.118Z,26.89
2023-06-21T13:50:27.282Z,27.31
2023-06-21T13:53:19.091Z,27.76
2023-06-21T13:56:10.124Z,27.70
2023-06-21T13:58:55.281Z,27.83
2023-06-21T14:01:47.131Z,27.62
2023-06-21T14:04:38.285Z,27.41
2023-06-21T14:07:37.130Z,27.17
2023-06-21T14:10:35.120Z,27.07
2023-06-21T14:13:22.673Z,26.94
2023-06-21T14:16:14.247Z,26.75
2023-06-21T14:18:59.457Z,26.93
2023-06-21T14:21:54.120Z,27.26
2023-06-21T14:24:46.110Z,27.26
2023-06-21T14:27:31.488Z,26.77
2023-06-21T14:30:24.260Z,27.03
2023-06-21T14:33:09.669Z,27.28
2023-06-21T14:36:01.149Z,27.53
2023-06-21T14:38:53.171Z,27.53
2023-06-21T14:41:38.195Z,27.50
2023-06-21T14:44:29.113Z,27.68
2023-06-21T14:47:14.193Z,27.35
2023-06-21T14:50:05.282Z,27.29
2023-06-21T14:52:51.358Z,27.40
2023-06-21T14:55:43.159Z,27.69
2023-06-21T14:58:28.358Z,27.60
2023-06-21T15:01:21.343Z,27.60
2023-06-21T15:04:07.134Z,27.73
2023-06-21T15:06:59.159Z,27.89
2023-06-21T15:09:55.064Z,27.70
2023-06-21T15:13:00.019Z,27.88
2023-06-21T15:15:46.259Z,27.96
2023-06-21T15:18:38.166Z,28.03
2023-06-21T15:21:23.334Z,28.00
2023-06-21T15:24:15.212Z,27.69
2023-06-21T15:27:00.105Z,27.80
2023-06-21T15:29:52.132Z,27.89
2023-06-21T15:32:44.261Z,27.86
2023-06-21T15:35:29.475Z,27.89
2023-06-21T15:38:21.165Z,27.77
2023-06-21T15:41:12.182Z,27.75
2023-06-21T15:43:57.020Z,27.67
2023-06-21T15:46:51.174Z,27.92
2023-06-21T15:49:43.168Z,27.67
2023-06-21T15:52:28.147Z,27.40
2023-06-21T15:55:20.217Z,27.19
2023-06-21T15:58:06.027Z,26.98
2023-06-21T16:00:57.168Z,26.93
2023-06-21T16:03:50.670Z,27.39
2023-06-21T16:06:42.165Z,27.29
2023-06-21T16:09:47.163Z,27.42
2023-06-21T16:12:31.903Z,27.04
2023-06-21T16:15:23.209Z,27.08
2023-06-21T16:18:08.021Z,27.12
2023-06-21T16:20:59.168Z,27.08
2023-06-21T16:23:44.094Z,27.07
2023-06-21T16:26:36.204Z,27.14
2023-06-21T16:29:28.166Z,27.33
2023-06-21T16:32:19.181Z,27.28
2023-06-21T16:35:04.754Z,26.95
2023-06-21T16:37:56.314Z,27.03
2023-06-21T16:40:41.168Z,27.00
2023-06-21T16:43:33.218Z,27.11
2023-06-21T16:46:25.225Z,27.08
2023-06-21T16:49:10.359Z,27.07
2023-06-21T16:52:02.191Z,27.03
2023-06-21T16:54:54.218Z,27.04
2023-06-21T16:57:39.159Z,26.86
2023-06-21T17:00:31.275Z,26.86
2023-06-21T17:03:17.512Z,26.91
2023-06-21T17:06:09.198Z,26.98
2023-06-21T17:09:14.198Z,26.78
2023-06-21T17:12:07.204Z,26.74
2023-06-21T17:14:52.328Z,26.86
2023-06-21T17:17:44.280Z,26.90
2023-06-21T17:20:29.634Z,26.78
2023-06-21T17:23:21.222Z,26.75
2023-06-21T17:26:07.340Z,26.76
2023-06-21T17:28:59.210Z,26.75
2023-06-21T17:31:44.055Z,26.70
2023-06-21T17:34:36.179Z,26.70
2023-06-21T17:37:28.210Z,26.48
2023-06-21T17:40:13.463Z,26.33
2023-06-21T17:43:05.214Z,26.33
2023-06-21T17:45:50.235Z,26.33
2023-06-21T17:48:41.322Z,26.32
2023-06-21T17:51:26.840Z,26.37
2023-06-21T17:54:18.210Z,26.33
2023-06-21T17:57:03.638Z,26.27
2023-06-21T17:59:55.215Z,26.38
2023-06-21T18:02:40.528Z,26.42
2023-06-21T18:05:32.226Z,26.40
2023-06-21T18:08:23.406Z,26.27
2023-06-21T18:11:15.218Z,26.22
2023-06-21T18:14:00.699Z,26.16
2023-06-21T18:16:52.230Z,26.11
2023-06-21T18:19:37.069Z,26.06
2023-06-21T18:22:41.683Z,25.85
2023-06-21T18:25:28.741Z,25.70
2023-06-21T18:28:20.240Z,25.63
2023-06-21T18:31:05.128Z,25.51
2023-06-21T18:33:56.242Z,25.50
2023-06-21T18:36:41.170Z,25.39
2023-06-21T18:39:32.263Z,25.33
2023-06-21T18:42:24.247Z,25.31
2023-06-21T18:45:09.512Z,25.29
2023-06-21T18:48:01.429Z,25.15
2023-06-21T18:50:53.243Z,24.99
2023-06-21T18:53:38.202Z,25.07
2023-06-21T18:56:29.287Z,25.06
2023-06-21T18:59:14.689Z,25.04
2023-06-21T19:02:06.304Z,25.12
2023-06-21T19:04:59.307Z,25.09
2023-06-21T19:07:58.290Z,25.01
2023-06-21T19:10:49.598Z,24.92
2023-06-21T19:13:41.261Z,24.89
2023-06-21T19:16:33.244Z,24.73
2023-06-21T19:19:24.317Z,24.65
2023-06-21T19:22:14.487Z,24.56
2023-06-21T19:25:07.258Z,24.48
2023-06-21T19:27:58.272Z,24.49
2023-06-21T19:30:49.318Z,24.39
2023-06-21T19:33:34.084Z,24.36
2023-06-21T19:36:26.259Z,24.42
2023-06-21T19:39:11.179Z,24.30
2023-06-21T19:42:03.267Z,24.15
2023-06-21T19:44:48.328Z,24.27
2023-06-21T19:47:40.367Z,24.23
2023-06-21T19:50:25.501Z,24.17
2023-06-21T19:53:17.297Z,24.12
2023-06-21T19:56:02.378Z,23.99
2023-06-21T19:58:54.283Z,23.96
2023-06-21T20:01:39.573Z,23.93
2023-06-21T20:04:31.264Z,23.94
2023-06-21T20:07:23.338Z,23.96
2023-06-21T20:10:21.277Z,23.94
2023-06-21T20:13:06.753Z,23.87
2023-06-21T20:16:00.353Z,23.90
2023-06-21T20:18:52.297Z,24.02
2023-06-21T20:21:44.272Z,24.03
2023-06-21T20:24:29.249Z,24.03
2023-06-21T20:27:20.287Z,24.02
2023-06-21T20:30:05.939Z,23.89
2023-06-21T20:32:57.373Z,23.75
2023-06-21T20:35:50.560Z,23.61
2023-06-21T20:38:36.953Z,23.51
2023-06-21T20:41:28.311Z,23.50
2023-06-21T20:44:15.205Z,23.46
2023-06-21T20:47:07.301Z,23.41
2023-06-21T20:49:52.091Z,23.29
2023-06-21T20:52:43.303Z,23.25
2023-06-21T20:55:28.214Z,23.20
2023-06-21T20:58:20.311Z,23.17
2023-06-21T21:01:05.496Z,23.13
2023-06-21T21:03:59.338Z,23.13
2023-06-21T21:06:44.373Z,23.18
2023-06-21T21:09:42.314Z,23.11
2023-06-21T21:12:27.474Z,23.07
2023-06-21T21:15:18.394Z,23.01
2023-06-21T21:18:03.978Z,22.99
2023-06-21T21:20:55.415Z,22.97
2023-06-21T21:23:47.331Z,22.96
2023-06-21T21:26:32.232Z,22.99
2023-06-21T21:29:24.310Z,23.01
2023-06-21T21:32:16.318Z,23.01
2023-06-21T21:35:07.308Z,23.00
2023-06-21T21:37:59.321Z,22.95
2023-06-21T21:40:51.320Z,22.86
2023-06-21T21:43:42.325Z,22.82
2023-06-21T21:46:27.159Z,22.75
2023-06-21T21:49:18.323Z,22.69
2023-06-21T21:52:03.808Z,22.60
2023-06-21T21:54:55.317Z,22.50
2023-06-21T21:57:46.333Z,22.42
2023-06-21T22:00:31.363Z,22.37
2023-06-21T22:03:23.438Z,22.37
2023-06-21T22:06:08.961Z,22.27
2023-06-21T22:09:07.355Z,22.21
2023-06-21T22:11:58.365Z,22.07
2023-06-21T22:14:49.310Z,22.12
2023-06-21T22:17:34.548Z,22.17
2023-06-21T22:20:26.568Z,22.25
2023-06-21T22:23:12.307Z,22.33
2023-06-21T22:26:05.328Z,22.36
2023-06-21T22:28:50.077Z,22.35
2023-06-21T22:31:41.362Z,22.41
2023-06-21T22:34:26.818Z,22.46
2023-06-21T22:37:18.419Z,22.50
2023-06-21T22:40:05.965Z,22.49
2023-06-21T22:42:58.384Z,22.51
2023-06-21T22:45:44.910Z,22.48
2023-06-21T22:48:36.369Z,22.49
2023-06-21T22:51:21.534Z,22.48
2023-06-21T22:54:15.356Z,22.40
2023-06-21T22:57:00.985Z,22.40
2023-06-21T22:59:52.340Z,22.38
2023-06-21T23:05:27.347Z,22.50
2023-06-21T23:08:19.387Z,22.47
2023-06-21T23:11:11.365Z,22.44
2023-06-21T23:14:03.386Z,22.46
2023-06-21T23:16:48.420Z,22.39
2023-06-21T23:19:45.347Z,22.41
2023-06-21T23:22:30.400Z,22.37
2023-06-21T23:25:21.373Z,22.41
2023-06-21T23:28:09.446Z,22.42
2023-06-21T23:31:04.434Z,22.44
2023-06-21T23:33:49.416Z,22.41
2023-06-21T23:36:43.061Z,22.42
2023-06-21T23:39:29.420Z,22.38
2023-06-21T23:42:20.373Z,22.36
2023-06-21T23:45:14.352Z,22.32
2023-06-21T23:47:59.372Z,22.33
2023-06-21T23:50:52.386Z,22.27
2023-06-21T23:53:39.201Z,22.28
2023-06-21T23:56:34.365Z,22.26
2023-06-21T23:59:19.241Z,22.47
